sensor_id;sensor_type;location;lat;lon;timestamp;temperature;humidity
25328;DHT22;13279;51.300;12.394;2022-11-15T00:02:22;6.80;99.90
25328;DHT22;13279;51.300;12.394;2022-11-15T00:05:12;6.80;99.90
25328;DHT22;13279;51.300;12.394;2022-11-15T00:07:59;6.80;99.90
25328;DHT22;13279;51.300;12.394;2022-11-15T00:10:55;6.80;99.90
25328;DHT22;13279;51.300;12.394;2022-11-15T00:13:42;6.80;99.90
25328;DHT22;13279;51.300;12.394;2022-11-15T00:16:28;6.80;99.90
25328;DHT22;13279;51.300;12.394;2022-11-15T00:19:14;6.80;99.90
25328;DHT22;13279;51.300;12.394;2022-11-15T00:22:01;6.80;99.90
25328;DHT22;13279;51.300;12.394;2022-11-15T00:24:47;6.80;99.90
25328;DHT22;13279;51.300;12.394;2022-11-15T00:27:35;6.90;99.90
25328;DHT22;13279;51.300;12.394;2022-11-15T00:30:21;6.90;99.90
25328;DHT22;13279;51.300;12.394;2022-11-15T00:33:08;6.90;99.90
25328;DHT22;13279;51.300;12.394;2022-11-15T00:36:00;7.00;99.90
25328;DHT22;13279;51.300;12.394;2022-11-15T00:38:47;7.10;99.90
25328;DHT22;13279;51.300;12.394;2022-11-15T00:41:33;7.20;99.90
25328;DHT22;13279;51.300;12.394;2022-11-15T00:44:20;7.20;99.90
25328;DHT22;13279;51.300;12.394;2022-11-15T00:47:06;7.30;99.90
25328;DHT22;13279;51.300;12.394;2022-11-15T00:49:53;7.40;99.90
25328;DHT22;13279;51.300;12.394;2022-11-15T00:52:39;7.50;99.90
25328;DHT22;13279;51.300;12.394;2022-11-15T00:55:26;7.50;99.90
25328;DHT22;13279;51.300;12.394;2022-11-15T00:58:12;7.50;99.90
25328;DHT22;13279;51.300;12.394;2022-11-15T01:01:07;7.60;99.90
25328;DHT22;13279;51.300;12.394;2022-11-15T01:03:53;7.60;99.90
25328;DHT22;13279;51.300;12.394;2022-11-15T01:06:40;7.60;99.90
25328;DHT22;13279;51.300;12.394;2022-11-15T01:09:26;7.60;99.90
25328;DHT22;13279;51.300;12.394;2022-11-15T01:12:13;7.60;99.90
25328;DHT22;13279;51.300;12.394;2022-11-15T01:14:59;7.60;99.90
25328;DHT22;13279;51.300;12.394;2022-11-15T01:17:46;7.60;99.90
25328;DHT22;13279;51.300;12.394;2022-11-15T01:20:33;7.60;99.90
25328;DHT22;13279;51.300;12.394;2022-11-15T01:23:19;7.60;99.90
25328;DHT22;13279;51.300;12.394;2022-11-15T01:26:09;7.60;99.90
25328;DHT22;13279;51.300;12.394;2022-11-15T01:28:56;7.50;99.90
25328;DHT22;13279;51.300;12.394;2022-11-15T01:31:42;7.60;99.90
25328;DHT22;13279;51.300;12.394;2022-11-15T01:34:31;7.60;99.90
25328;DHT22;13279;51.300;12.394;2022-11-15T01:37:18;7.60;99.90
25328;DHT22;13279;51.300;12.394;2022-11-15T01:40:05;7.60;99.90
25328;DHT22;13279;51.300;12.394;2022-11-15T01:42:51;7.60;99.90
25328;DHT22;13279;51.300;12.394;2022-11-15T01:45:38;7.60;99.90
25328;DHT22;13279;51.300;12.394;2022-11-15T01:48:30;7.50;99.90
25328;DHT22;13279;51.300;12.394;2022-11-15T01:51:20;7.50;99.90
25328;DHT22;13279;51.300;12.394;2022-11-15T01:54:12;7.40;99.90
25328;DHT22;13279;51.300;12.394;2022-11-15T01:57:03;7.40;99.90
25328;DHT22;13279;51.300;12.394;2022-11-15T01:59:52;7.40;99.90
25328;DHT22;13279;51.300;12.394;2022-11-15T02:02:38;7.40;99.90
25328;DHT22;13279;51.300;12.394;2022-11-15T02:05:25;7.30;99.90
25328;DHT22;13279;51.300;12.394;2022-11-15T02:08:13;7.30;99.90
25328;DHT22;13279;51.300;12.394;2022-11-15T02:11:07;7.30;99.90
25328;DHT22;13279;51.300;12.394;2022-11-15T02:13:53;7.30;99.90
25328;DHT22;13279;51.300;12.394;2022-11-15T02:16:47;7.30;99.90
25328;DHT22;13279;51.300;12.394;2022-11-15T02:20:11;7.30;99.90
25328;DHT22;13279;51.300;12.394;2022-11-15T02:23:21;7.30;99.90
25328;DHT22;13279;51.300;12.394;2022-11-15T02:26:45;7.30;99.90
25328;DHT22;13279;51.300;12.394;2022-11-15T02:29:47;7.20;99.90
25328;DHT22;13279;51.300;12.394;2022-11-15T02:32:42;7.20;99.90
25328;DHT22;13279;51.300;12.394;2022-11-15T02:35:34;7.30;99.90
25328;DHT22;13279;51.300;12.394;2022-11-15T02:38:30;7.30;99.90
25328;DHT22;13279;51.300;12.394;2022-11-15T02:41:25;7.20;99.90
25328;DHT22;13279;51.300;12.394;2022-11-15T02:44:17;7.30;99.90
25328;DHT22;13279;51.300;12.394;2022-11-15T02:47:08;7.30;99.90
25328;DHT22;13279;51.300;12.394;2022-11-15T02:50:06;7.30;99.90
25328;DHT22;13279;51.300;12.394;2022-11-15T02:52:53;7.30;99.90
25328;DHT22;13279;51.300;12.394;2022-11-15T02:55:43;7.30;99.90
25328;DHT22;13279;51.300;12.394;2022-11-15T03:01:54;7.40;99.90
25328;DHT22;13279;51.300;12.394;2022-11-15T03:04:44;7.40;99.90
25328;DHT22;13279;51.300;12.394;2022-11-15T03:07:36;7.30;99.90
25328;DHT22;13279;51.300;12.394;2022-11-15T03:10:32;7.30;99.90
25328;DHT22;13279;51.300;12.394;2022-11-15T03:13:25;7.40;99.90
25328;DHT22;13279;51.300;12.394;2022-11-15T03:16:17;7.40;99.90
25328;DHT22;13279;51.300;12.394;2022-11-15T03:19:09;7.30;99.90
25328;DHT22;13279;51.300;12.394;2022-11-15T03:22:00;7.40;99.90
25328;DHT22;13279;51.300;12.394;2022-11-15T03:24:55;7.40;99.90
25328;DHT22;13279;51.300;12.394;2022-11-15T03:27:46;7.40;99.90
25328;DHT22;13279;51.300;12.394;2022-11-15T03:30:35;7.40;99.90
25328;DHT22;13279;51.300;12.394;2022-11-15T03:33:22;7.40;99.90
25328;DHT22;13279;51.300;12.394;2022-11-15T03:36:08;7.40;99.90
25328;DHT22;13279;51.300;12.394;2022-11-15T03:38:57;7.40;99.90
25328;DHT22;13279;51.300;12.394;2022-11-15T03:41:52;7.30;99.90
25328;DHT22;13279;51.300;12.394;2022-11-15T03:44:46;7.30;99.90
25328;DHT22;13279;51.300;12.394;2022-11-15T03:47:39;7.30;99.90
25328;DHT22;13279;51.300;12.394;2022-11-15T03:50:28;7.30;99.90
25328;DHT22;13279;51.300;12.394;2022-11-15T03:53:16;7.30;99.90
25328;DHT22;13279;51.300;12.394;2022-11-15T03:56:03;7.30;99.90
25328;DHT22;13279;51.300;12.394;2022-11-15T03:58:51;7.30;99.90
25328;DHT22;13279;51.300;12.394;2022-11-15T04:01:37;7.30;99.90
25328;DHT22;13279;51.300;12.394;2022-11-15T04:04:24;7.30;99.90
25328;DHT22;13279;51.300;12.394;2022-11-15T04:07:11;7.30;99.90
25328;DHT22;13279;51.300;12.394;2022-11-15T04:09:57;7.30;99.90
25328;DHT22;13279;51.300;12.394;2022-11-15T04:12:50;7.30;99.90
25328;DHT22;13279;51.300;12.394;2022-11-15T04:15:38;7.40;99.90
25328;DHT22;13279;51.300;12.394;2022-11-15T04:18:24;7.40;99.90
25328;DHT22;13279;51.300;12.394;2022-11-15T04:21:10;7.40;99.90
25328;DHT22;13279;51.300;12.394;2022-11-15T04:24:14;7.40;99.90
25328;DHT22;13279;51.300;12.394;2022-11-15T04:27:01;7.50;99.90
25328;DHT22;13279;51.300;12.394;2022-11-15T04:29:48;7.50;99.90
25328;DHT22;13279;51.300;12.394;2022-11-15T04:32:36;7.50;99.90
25328;DHT22;13279;51.300;12.394;2022-11-15T04:35:22;7.50;99.90
25328;DHT22;13279;51.300;12.394;2022-11-15T04:38:10;7.50;99.90
25328;DHT22;13279;51.300;12.394;2022-11-15T04:40:56;7.50;99.90
25328;DHT22;13279;51.300;12.394;2022-11-15T04:43:43;7.50;99.90
25328;DHT22;13279;51.300;12.394;2022-11-15T04:46:29;7.40;99.90
25328;DHT22;13279;51.300;12.394;2022-11-15T04:49:17;7.40;99.90
25328;DHT22;13279;51.300;12.394;2022-11-15T04:52:03;7.40;99.90
25328;DHT22;13279;51.300;12.394;2022-11-15T04:54:50;7.40;99.90
25328;DHT22;13279;51.300;12.394;2022-11-15T04:57:36;7.50;99.90
25328;DHT22;13279;51.300;12.394;2022-11-15T05:00:23;7.50;99.90
25328;DHT22;13279;51.300;12.394;2022-11-15T05:03:10;7.40;99.90
25328;DHT22;13279;51.300;12.394;2022-11-15T05:06:20;7.40;99.90
25328;DHT22;13279;51.300;12.394;2022-11-15T05:09:07;7.40;99.90
25328;DHT22;13279;51.300;12.394;2022-11-15T05:11:53;7.40;99.90
25328;DHT22;13279;51.300;12.394;2022-11-15T05:14:39;7.40;99.90
25328;DHT22;13279;51.300;12.394;2022-11-15T05:17:25;7.30;99.90
25328;DHT22;13279;51.300;12.394;2022-11-15T05:20:12;7.30;99.90
25328;DHT22;13279;51.300;12.394;2022-11-15T05:23:00;7.30;99.90
25328;DHT22;13279;51.300;12.394;2022-11-15T05:25:46;7.30;99.90
25328;DHT22;13279;51.300;12.394;2022-11-15T05:28:33;7.30;99.90
25328;DHT22;13279;51.300;12.394;2022-11-15T05:31:21;7.30;99.90
25328;DHT22;13279;51.300;12.394;2022-11-15T05:34:08;7.30;99.90
25328;DHT22;13279;51.300;12.394;2022-11-15T05:36:54;7.30;99.90
25328;DHT22;13279;51.300;12.394;2022-11-15T05:39:42;7.30;99.90
25328;DHT22;13279;51.300;12.394;2022-11-15T05:42:30;7.30;99.90
25328;DHT22;13279;51.300;12.394;2022-11-15T05:45:16;7.30;99.90
25328;DHT22;13279;51.300;12.394;2022-11-15T05:48:05;7.30;99.90
25328;DHT22;13279;51.300;12.394;2022-11-15T05:50:53;7.30;99.90
25328;DHT22;13279;51.300;12.394;2022-11-15T05:53:39;7.30;99.90
25328;DHT22;13279;51.300;12.394;2022-11-15T05:56:28;7.30;99.90
25328;DHT22;13279;51.300;12.394;2022-11-15T05:59:15;7.30;99.90
25328;DHT22;13279;51.300;12.394;2022-11-15T06:02:02;7.30;99.90
25328;DHT22;13279;51.300;12.394;2022-11-15T06:04:48;7.30;99.90
25328;DHT22;13279;51.300;12.394;2022-11-15T06:07:35;7.30;99.90
25328;DHT22;13279;51.300;12.394;2022-11-15T06:10:21;7.30;99.90
25328;DHT22;13279;51.300;12.394;2022-11-15T06:13:12;7.20;99.90
25328;DHT22;13279;51.300;12.394;2022-11-15T06:18:46;7.20;99.90
25328;DHT22;13279;51.300;12.394;2022-11-15T06:21:32;7.30;99.90
25328;DHT22;13279;51.300;12.394;2022-11-15T06:24:18;7.20;99.90
25328;DHT22;13279;51.300;12.394;2022-11-15T06:27:05;7.20;99.90
25328;DHT22;13279;51.300;12.394;2022-11-15T06:29:52;7.20;99.90
25328;DHT22;13279;51.300;12.394;2022-11-15T06:32:38;7.10;99.90
25328;DHT22;13279;51.300;12.394;2022-11-15T06:35:24;7.10;99.90
25328;DHT22;13279;51.300;12.394;2022-11-15T06:38:10;7.10;99.90
25328;DHT22;13279;51.300;12.394;2022-11-15T06:41:01;7.10;99.90
25328;DHT22;13279;51.300;12.394;2022-11-15T06:43:47;7.10;99.90
25328;DHT22;13279;51.300;12.394;2022-11-15T06:46:34;7.10;99.90
25328;DHT22;13279;51.300;12.394;2022-11-15T06:49:21;7.10;99.90
25328;DHT22;13279;51.300;12.394;2022-11-15T06:52:07;7.10;99.90
25328;DHT22;13279;51.300;12.394;2022-11-15T06:54:53;7.10;99.90
25328;DHT22;13279;51.300;12.394;2022-11-15T06:57:47;7.20;99.90
25328;DHT22;13279;51.300;12.394;2022-11-15T07:00:33;7.20;99.90
25328;DHT22;13279;51.300;12.394;2022-11-15T07:03:20;7.30;99.90
25328;DHT22;13279;51.300;12.394;2022-11-15T07:06:07;7.30;99.90
25328;DHT22;13279;51.300;12.394;2022-11-15T07:08:53;7.30;99.90
25328;DHT22;13279;51.300;12.394;2022-11-15T07:11:40;7.40;99.90
25328;DHT22;13279;51.300;12.394;2022-11-15T07:14:26;7.40;99.90
25328;DHT22;13279;51.300;12.394;2022-11-15T07:17:12;7.40;99.90
25328;DHT22;13279;51.300;12.394;2022-11-15T07:19:59;7.50;99.90
25328;DHT22;13279;51.300;12.394;2022-11-15T07:22:46;7.50;99.90
25328;DHT22;13279;51.300;12.394;2022-11-15T07:25:32;7.60;99.90
25328;DHT22;13279;51.300;12.394;2022-11-15T07:28:18;7.60;99.90
25328;DHT22;13279;51.300;12.394;2022-11-15T07:31:05;7.80;99.90
25328;DHT22;13279;51.300;12.394;2022-11-15T07:33:52;7.90;99.90
25328;DHT22;13279;51.300;12.394;2022-11-15T07:36:40;8.20;99.90
25328;DHT22;13279;51.300;12.394;2022-11-15T07:39:28;8.40;99.90
25328;DHT22;13279;51.300;12.394;2022-11-15T07:42:15;8.70;99.90
25328;DHT22;13279;51.300;12.394;2022-11-15T07:45:19;9.00;99.90
25328;DHT22;13279;51.300;12.394;2022-11-15T07:48:05;9.30;99.90
25328;DHT22;13279;51.300;12.394;2022-11-15T07:50:52;9.50;99.90
25328;DHT22;13279;51.300;12.394;2022-11-15T07:53:39;9.70;99.90
25328;DHT22;13279;51.300;12.394;2022-11-15T07:56:25;9.90;81.80
25328;DHT22;13279;51.300;12.394;2022-11-15T07:59:11;10.10;1.00
25328;DHT22;13279;51.300;12.394;2022-11-15T08:01:58;10.30;1.00
25328;DHT22;13279;51.300;12.394;2022-11-15T08:04:44;10.50;1.00
25328;DHT22;13279;51.300;12.394;2022-11-15T08:07:30;10.70;1.00
25328;DHT22;13279;51.300;12.394;2022-11-15T08:10:18;10.80;1.00
25328;DHT22;13279;51.300;12.394;2022-11-15T08:13:06;10.90;1.00
25328;DHT22;13279;51.300;12.394;2022-11-15T08:15:57;11.00;1.00
25328;DHT22;13279;51.300;12.394;2022-11-15T08:18:44;11.10;1.00
25328;DHT22;13279;51.300;12.394;2022-11-15T08:21:30;11.30;1.00
25328;DHT22;13279;51.300;12.394;2022-11-15T08:24:17;11.40;1.00
25328;DHT22;13279;51.300;12.394;2022-11-15T08:27:04;11.40;1.00
25328;DHT22;13279;51.300;12.394;2022-11-15T08:29:59;11.50;1.00
25328;DHT22;13279;51.300;12.394;2022-11-15T08:32:46;11.60;1.00
25328;DHT22;13279;51.300;12.394;2022-11-15T08:35:32;11.70;1.00
25328;DHT22;13279;51.300;12.394;2022-11-15T08:38:18;11.90;1.00
25328;DHT22;13279;51.300;12.394;2022-11-15T08:41:04;11.90;1.00
25328;DHT22;13279;51.300;12.394;2022-11-15T08:43:53;12.10;1.00
25328;DHT22;13279;51.300;12.394;2022-11-15T08:46:39;12.30;1.00
25328;DHT22;13279;51.300;12.394;2022-11-15T08:49:25;12.40;1.00
25328;DHT22;13279;51.300;12.394;2022-11-15T08:52:11;12.60;1.00
25328;DHT22;13279;51.300;12.394;2022-11-15T08:54:57;12.80;1.00
25328;DHT22;13279;51.300;12.394;2022-11-15T08:57:43;12.90;1.00
25328;DHT22;13279;51.300;12.394;2022-11-15T09:00:32;13.10;1.00
25328;DHT22;13279;51.300;12.394;2022-11-15T09:03:18;13.30;1.00
25328;DHT22;13279;51.300;12.394;2022-11-15T09:06:04;13.50;1.00
25328;DHT22;13279;51.300;12.394;2022-11-15T09:08:50;13.60;99.90
25328;DHT22;13279;51.300;12.394;2022-11-15T09:11:36;13.60;99.90
25328;DHT22;13279;51.300;12.394;2022-11-15T09:14:22;13.60;99.90
25328;DHT22;13279;51.300;12.394;2022-11-15T09:17:10;13.80;99.90
25328;DHT22;13279;51.300;12.394;2022-11-15T09:19:56;13.90;99.90
25328;DHT22;13279;51.300;12.394;2022-11-15T09:22:43;14.20;99.90
25328;DHT22;13279;51.300;12.394;2022-11-15T09:25:30;14.50;2.90
25328;DHT22;13279;51.300;12.394;2022-11-15T09:28:16;14.80;1.00
25328;DHT22;13279;51.300;12.394;2022-11-15T09:31:04;14.90;1.00
25328;DHT22;13279;51.300;12.394;2022-11-15T09:33:52;14.80;1.00
25328;DHT22;13279;51.300;12.394;2022-11-15T09:36:38;14.80;1.00
25328;DHT22;13279;51.300;12.394;2022-11-15T09:39:25;14.70;1.00
25328;DHT22;13279;51.300;12.394;2022-11-15T09:42:26;14.70;1.00
25328;DHT22;13279;51.300;12.394;2022-11-15T09:45:22;14.70;1.00
25328;DHT22;13279;51.300;12.394;2022-11-15T09:51:45;14.90;1.00
25328;DHT22;13279;51.300;12.394;2022-11-15T09:54:26;15.00;99.90
25328;DHT22;13279;51.300;12.394;2022-11-15T09:56:56;15.00;99.90
25328;DHT22;13279;51.300;12.394;2022-11-15T09:59:38;15.00;99.90
25328;DHT22;13279;51.300;12.394;2022-11-15T10:02:21;15.20;99.90
25328;DHT22;13279;51.300;12.394;2022-11-15T10:04:51;15.40;1.00
25328;DHT22;13279;51.300;12.394;2022-11-15T10:07:26;15.50;1.00
25328;DHT22;13279;51.300;12.394;2022-11-15T10:09:59;15.50;1.00
25328;DHT22;13279;51.300;12.394;2022-11-15T10:12:30;15.50;1.00
25328;DHT22;13279;51.300;12.394;2022-11-15T10:15:03;15.60;1.00
25328;DHT22;13279;51.300;12.394;2022-11-15T10:17:46;15.70;1.00
25328;DHT22;13279;51.300;12.394;2022-11-15T10:20:20;15.90;99.90
25328;DHT22;13279;51.300;12.394;2022-11-15T10:22:51;15.80;99.90
25328;DHT22;13279;51.300;12.394;2022-11-15T10:25:21;15.50;1.00
25328;DHT22;13279;51.300;12.394;2022-11-15T10:27:55;15.40;1.00
25328;DHT22;13279;51.300;12.394;2022-11-15T10:30:30;15.40;1.00
25328;DHT22;13279;51.300;12.394;2022-11-15T10:33:08;15.30;1.00
25328;DHT22;13279;51.300;12.394;2022-11-15T10:35:37;15.10;1.00
25328;DHT22;13279;51.300;12.394;2022-11-15T10:38:10;14.90;1.00
25328;DHT22;13279;51.300;12.394;2022-11-15T10:40:39;14.90;99.90
25328;DHT22;13279;51.300;12.394;2022-11-15T10:43:15;14.90;99.90
25328;DHT22;13279;51.300;12.394;2022-11-15T10:45:43;14.80;1.00
25328;DHT22;13279;51.300;12.394;2022-11-15T10:48:22;14.80;99.90
25328;DHT22;13279;51.300;12.394;2022-11-15T10:50:52;14.80;1.00
25328;DHT22;13279;51.300;12.394;2022-11-15T10:53:28;14.80;1.00
25328;DHT22;13279;51.300;12.394;2022-11-15T10:56:00;14.80;1.00
25328;DHT22;13279;51.300;12.394;2022-11-15T10:58:34;14.80;1.00
25328;DHT22;13279;51.300;12.394;2022-11-15T11:01:10;14.80;1.00
25328;DHT22;13279;51.300;12.394;2022-11-15T11:03:40;14.70;1.00
25328;DHT22;13279;51.300;12.394;2022-11-15T11:06:11;14.70;1.00
25328;DHT22;13279;51.300;12.394;2022-11-15T11:08:40;14.70;1.00
25328;DHT22;13279;51.300;12.394;2022-11-15T11:11:19;14.70;1.00
25328;DHT22;13279;51.300;12.394;2022-11-15T11:13:47;14.70;1.00
25328;DHT22;13279;51.300;12.394;2022-11-15T11:16:43;14.70;1.00
25328;DHT22;13279;51.300;12.394;2022-11-15T11:22:05;14.70;1.00
25328;DHT22;13279;51.300;12.394;2022-11-15T11:24:43;14.70;1.00
25328;DHT22;13279;51.300;12.394;2022-11-15T11:27:22;14.70;1.00
25328;DHT22;13279;51.300;12.394;2022-11-15T11:30:03;14.70;1.00
25328;DHT22;13279;51.300;12.394;2022-11-15T11:32:57;14.80;1.00
25328;DHT22;13279;51.300;12.394;2022-11-15T11:35:30;14.80;1.00
25328;DHT22;13279;51.300;12.394;2022-11-15T11:38:11;14.70;1.00
25328;DHT22;13279;51.300;12.394;2022-11-15T11:40:54;14.70;1.00
25328;DHT22;13279;51.300;12.394;2022-11-15T11:43:27;14.70;1.00
25328;DHT22;13279;51.300;12.394;2022-11-15T11:46:22;14.80;1.00
25328;DHT22;13279;51.300;12.394;2022-11-15T11:48:56;14.80;1.00
25328;DHT22;13279;51.300;12.394;2022-11-15T11:51:27;14.90;1.00
25328;DHT22;13279;51.300;12.394;2022-11-15T11:54:00;15.00;1.00
25328;DHT22;13279;51.300;12.394;2022-11-15T11:56:35;15.00;1.00
25328;DHT22;13279;51.300;12.394;2022-11-15T11:59:10;15.10;1.00
25328;DHT22;13279;51.300;12.394;2022-11-15T12:01:42;15.10;1.00
25328;DHT22;13279;51.300;12.394;2022-11-15T12:04:14;15.20;1.00
25328;DHT22;13279;51.300;12.394;2022-11-15T12:06:48;15.20;99.90
25328;DHT22;13279;51.300;12.394;2022-11-15T12:09:20;15.30;1.00
25328;DHT22;13279;51.300;12.394;2022-11-15T12:11:56;15.40;99.90
25328;DHT22;13279;51.300;12.394;2022-11-15T12:14:29;15.40;99.90
25328;DHT22;13279;51.300;12.394;2022-11-15T12:16:59;15.50;1.00
25328;DHT22;13279;51.300;12.394;2022-11-15T12:19:27;15.50;99.90
25328;DHT22;13279;51.300;12.394;2022-11-15T12:22:00;15.60;99.90
25328;DHT22;13279;51.300;12.394;2022-11-15T12:24:33;15.70;1.00
25328;DHT22;13279;51.300;12.394;2022-11-15T12:27:08;15.70;1.00
25328;DHT22;13279;51.300;12.394;2022-11-15T12:29:41;15.80;1.00
25328;DHT22;13279;51.300;12.394;2022-11-15T12:32:25;15.80;99.90
25328;DHT22;13279;51.300;12.394;2022-11-15T12:34:53;15.90;20.60
25328;DHT22;13279;51.300;12.394;2022-11-15T12:37:48;16.00;1.00
25328;DHT22;13279;51.300;12.394;2022-11-15T12:40:32;16.10;1.00
25328;DHT22;13279;51.300;12.394;2022-11-15T12:43:37;16.20;1.00
25328;DHT22;13279;51.300;12.394;2022-11-15T12:46:11;16.30;1.00
25328;DHT22;13279;51.300;12.394;2022-11-15T12:48:57;16.40;99.90
25328;DHT22;13279;51.300;12.394;2022-11-15T12:54:53;16.70;99.90
25328;DHT22;13279;51.300;12.394;2022-11-15T12:57:38;16.90;99.90
25328;DHT22;13279;51.300;12.394;2022-11-15T13:03:22;17.50;1.00
25328;DHT22;13279;51.300;12.394;2022-11-15T13:06:09;17.80;46.60
25328;DHT22;13279;51.300;12.394;2022-11-15T13:08:56;18.00;1.00
25328;DHT22;13279;51.300;12.394;2022-11-15T13:11:48;18.10;1.00
25328;DHT22;13279;51.300;12.394;2022-11-15T13:14:49;18.30;1.00
25328;DHT22;13279;51.300;12.394;2022-11-15T13:17:24;18.50;1.00
25328;DHT22;13279;51.300;12.394;2022-11-15T13:19:59;18.60;1.00
25328;DHT22;13279;51.300;12.394;2022-11-15T13:22:27;18.80;1.00
25328;DHT22;13279;51.300;12.394;2022-11-15T13:25:18;18.90;99.90
25328;DHT22;13279;51.300;12.394;2022-11-15T13:27:47;19.10;99.90
25328;DHT22;13279;51.300;12.394;2022-11-15T13:30:20;19.30;99.90
25328;DHT22;13279;51.300;12.394;2022-11-15T13:32:48;19.50;1.00
25328;DHT22;13279;51.300;12.394;2022-11-15T13:35:21;19.50;1.00
25328;DHT22;13279;51.300;12.394;2022-11-15T13:37:50;19.70;1.00
25328;DHT22;13279;51.300;12.394;2022-11-15T13:40:26;19.70;1.00
25328;DHT22;13279;51.300;12.394;2022-11-15T13:42:57;19.60;1.00
25328;DHT22;13279;51.300;12.394;2022-11-15T13:45:24;19.80;1.00
25328;DHT22;13279;51.300;12.394;2022-11-15T13:47:55;20.00;1.00
25328;DHT22;13279;51.300;12.394;2022-11-15T13:50:27;20.30;1.00
25328;DHT22;13279;51.300;12.394;2022-11-15T13:52:58;20.50;99.90
25328;DHT22;13279;51.300;12.394;2022-11-15T13:55:29;20.70;99.90
25328;DHT22;13279;51.300;12.394;2022-11-15T13:58:01;21.00;89.10
25328;DHT22;13279;51.300;12.394;2022-11-15T14:00:37;20.90;17.90
25328;DHT22;13279;51.300;12.394;2022-11-15T14:03:12;20.70;99.90
25328;DHT22;13279;51.300;12.394;2022-11-15T14:05:45;20.80;99.90
25328;DHT22;13279;51.300;12.394;2022-11-15T14:08:23;20.80;99.90
25328;DHT22;13279;51.300;12.394;2022-11-15T14:11:13;20.60;99.90
25328;DHT22;13279;51.300;12.394;2022-11-15T14:13:57;20.30;99.90
25328;DHT22;13279;51.300;12.394;2022-11-15T14:16:34;19.70;99.90
25328;DHT22;13279;51.300;12.394;2022-11-15T14:19:03;19.60;1.00
25328;DHT22;13279;51.300;12.394;2022-11-15T14:21:32;19.30;1.00
25328;DHT22;13279;51.300;12.394;2022-11-15T14:24:23;19.20;1.00
25328;DHT22;13279;51.300;12.394;2022-11-15T14:26:57;19.10;1.00
25328;DHT22;13279;51.300;12.394;2022-11-15T14:30:00;18.80;99.90
25328;DHT22;13279;51.300;12.394;2022-11-15T14:32:30;18.40;1.00
25328;DHT22;13279;51.300;12.394;2022-11-15T14:35:12;17.90;1.00
25328;DHT22;13279;51.300;12.394;2022-11-15T14:37:43;17.60;1.00
25328;DHT22;13279;51.300;12.394;2022-11-15T14:40:13;17.20;1.00
25328;DHT22;13279;51.300;12.394;2022-11-15T14:42:41;16.90;1.00
25328;DHT22;13279;51.300;12.394;2022-11-15T14:45:12;16.50;99.90
25328;DHT22;13279;51.300;12.394;2022-11-15T14:47:40;16.40;1.00
25328;DHT22;13279;51.300;12.394;2022-11-15T14:50:11;16.60;99.90
25328;DHT22;13279;51.300;12.394;2022-11-15T14:52:39;17.00;23.20
25328;DHT22;13279;51.300;12.394;2022-11-15T14:55:16;17.30;38.20
25328;DHT22;13279;51.300;12.394;2022-11-15T14:57:45;17.30;1.00
25328;DHT22;13279;51.300;12.394;2022-11-15T15:00:14;17.10;27.40
25328;DHT22;13279;51.300;12.394;2022-11-15T15:02:43;16.90;1.00
25328;DHT22;13279;51.300;12.394;2022-11-15T15:05:15;16.30;1.00
25328;DHT22;13279;51.300;12.394;2022-11-15T15:07:43;16.00;99.90
25328;DHT22;13279;51.300;12.394;2022-11-15T15:10:10;15.60;1.00
25328;DHT22;13279;51.300;12.394;2022-11-15T15:12:39;15.40;1.00
25328;DHT22;13279;51.300;12.394;2022-11-15T15:15:13;15.10;99.90
25328;DHT22;13279;51.300;12.394;2022-11-15T15:17:41;14.80;99.90
25328;DHT22;13279;51.300;12.394;2022-11-15T15:20:09;14.60;99.90
25328;DHT22;13279;51.300;12.394;2022-11-15T15:22:38;14.50;99.90
25328;DHT22;13279;51.300;12.394;2022-11-15T15:25:26;14.30;1.00
25328;DHT22;13279;51.300;12.394;2022-11-15T15:27:55;14.20;1.00
25328;DHT22;13279;51.300;12.394;2022-11-15T15:30:23;14.10;1.00
25328;DHT22;13279;51.300;12.394;2022-11-15T15:32:51;14.00;1.00
25328;DHT22;13279;51.300;12.394;2022-11-15T15:35:20;13.90;1.00
25328;DHT22;13279;51.300;12.394;2022-11-15T15:37:48;13.80;1.00
25328;DHT22;13279;51.300;12.394;2022-11-15T15:40:18;13.70;1.00
25328;DHT22;13279;51.300;12.394;2022-11-15T15:42:47;13.60;1.00
25328;DHT22;13279;51.300;12.394;2022-11-15T15:45:16;13.50;1.00
25328;DHT22;13279;51.300;12.394;2022-11-15T15:47:45;13.40;1.00
25328;DHT22;13279;51.300;12.394;2022-11-15T15:50:20;13.40;1.00
25328;DHT22;13279;51.300;12.394;2022-11-15T15:52:48;13.30;1.00
25328;DHT22;13279;51.300;12.394;2022-11-15T15:55:15;13.20;1.00
25328;DHT22;13279;51.300;12.394;2022-11-15T15:57:43;13.20;1.00
25328;DHT22;13279;51.300;12.394;2022-11-15T16:00:11;13.10;1.00
25328;DHT22;13279;51.300;12.394;2022-11-15T16:02:41;13.10;1.00
25328;DHT22;13279;51.300;12.394;2022-11-15T16:05:09;13.00;1.00
25328;DHT22;13279;51.300;12.394;2022-11-15T16:07:37;13.00;1.00
25328;DHT22;13279;51.300;12.394;2022-11-15T16:10:17;12.90;1.00
25328;DHT22;13279;51.300;12.394;2022-11-15T16:12:46;12.90;1.00
25328;DHT22;13279;51.300;12.394;2022-11-15T16:15:13;12.80;1.00
25328;DHT22;13279;51.300;12.394;2022-11-15T16:17:48;12.80;1.00
25328;DHT22;13279;51.300;12.394;2022-11-15T16:20:32;12.70;1.00
25328;DHT22;13279;51.300;12.394;2022-11-15T16:23:00;12.70;1.00
25328;DHT22;13279;51.300;12.394;2022-11-15T16:25:28;12.60;1.00
25328;DHT22;13279;51.300;12.394;2022-11-15T16:27:56;12.60;1.00
25328;DHT22;13279;51.300;12.394;2022-11-15T16:30:23;12.40;1.00
25328;DHT22;13279;51.300;12.394;2022-11-15T16:32:52;12.10;1.00
25328;DHT22;13279;51.300;12.394;2022-11-15T16:35:19;12.10;1.00
25328;DHT22;13279;51.300;12.394;2022-11-15T16:37:47;12.00;1.00
25328;DHT22;13279;51.300;12.394;2022-11-15T16:40:25;11.90;1.00
25328;DHT22;13279;51.300;12.394;2022-11-15T16:42:53;11.80;1.00
25328;DHT22;13279;51.300;12.394;2022-11-15T16:45:21;11.60;4.30
25328;DHT22;13279;51.300;12.394;2022-11-15T16:47:49;11.50;19.50
25328;DHT22;13279;51.300;12.394;2022-11-15T16:50:21;11.40;24.40
25328;DHT22;13279;51.300;12.394;2022-11-15T16:52:50;11.40;49.70
25328;DHT22;13279;51.300;12.394;2022-11-15T16:55:18;11.30;68.60
25328;DHT22;13279;51.300;12.394;2022-11-15T16:57:46;11.30;99.90
25328;DHT22;13279;51.300;12.394;2022-11-15T17:00:15;11.30;99.90
25328;DHT22;13279;51.300;12.394;2022-11-15T17:02:43;11.30;93.80
25328;DHT22;13279;51.300;12.394;2022-11-15T17:05:11;11.20;99.90
25328;DHT22;13279;51.300;12.394;2022-11-15T17:07:40;11.10;99.90
25328;DHT22;13279;51.300;12.394;2022-11-15T17:10:10;11.10;99.90
25328;DHT22;13279;51.300;12.394;2022-11-15T17:12:37;11.00;99.90
25328;DHT22;13279;51.300;12.394;2022-11-15T17:15:05;11.00;99.90
25328;DHT22;13279;51.300;12.394;2022-11-15T17:17:33;10.80;99.90
25328;DHT22;13279;51.300;12.394;2022-11-15T17:20:00;10.70;99.90